Avon Park, Florida
Current Conditions -  °F | °C
As of 6:15 AM on Friday 31 Oct 2014 (Local Time) from KBOW Reporting Station
Overcast Overcast  
Wind Chill: 66°   Ceiling: 6000
Heat Index: 66°   Visibility: 10mi
Dew Point: 66°   Wind: 6mph
Humidity: 100%   Direction: 310°NW
Pressure: 29.86"   Gusts: NA
Location:  27.6°N, 81.51°W
Report Text: KBOW 311015Z AUTO 31005KT 10SM SCT045 BKN060 OVC075 19/19 A2986 RMK AO2
Loading
Personal Weather Stations






























Interactive Weather Map
Tropical Storm Tracking
New forecast layout! Learn more

10-Day Weather Forecast

Advertisements
Track Severe Weather on mobile